sensor_id;sensor_type;location;lat;lon;timestamp;temperature;humidity
2767;DHT22;1391;46.74287300;11.63683300;2024-01-30T00:02:01;-1.80;52.10
2767;DHT22;1391;46.74287300;11.63683300;2024-01-30T00:04:28;-1.90;51.40
2767;DHT22;1391;46.74287300;11.63683300;2024-01-30T00:06:55;-2.00;51.20
2767;DHT22;1391;46.74287300;11.63683300;2024-01-30T00:09:23;-2.20;49.40
2767;DHT22;1391;46.74287300;11.63683300;2024-01-30T00:11:50;-2.40;51.50
2767;DHT22;1391;46.74287300;11.63683300;2024-01-30T00:14:18;-1.90;54.50
2767;DHT22;1391;46.74287300;11.63683300;2024-01-30T00:16:46;-2.10;53.30
2767;DHT22;1391;46.74287300;11.63683300;2024-01-30T00:19:13;-2.20;55.90
2767;DHT22;1391;46.74287300;11.63683300;2024-01-30T00:21:41;-2.60;56.20
2767;DHT22;1391;46.74287300;11.63683300;2024-01-30T00:24:08;-2.40;59.60
2767;DHT22;1391;46.74287300;11.63683300;2024-01-30T00:26:35;-2.30;62.80
2767;DHT22;1391;46.74287300;11.63683300;2024-01-30T00:29:03;-2.20;60.90
2767;DHT22;1391;46.74287300;11.63683300;2024-01-30T00:31:30;-2.60;55.70
2767;DHT22;1391;46.74287300;11.63683300;2024-01-30T00:33:58;-2.30;57.90
2767;DHT22;1391;46.74287300;11.63683300;2024-01-30T00:36:26;-2.60;57.90
2767;DHT22;1391;46.74287300;11.63683300;2024-01-30T00:38:55;-2.40;59.20
2767;DHT22;1391;46.74287300;11.63683300;2024-01-30T00:41:22;-2.70;56.50
2767;DHT22;1391;46.74287300;11.63683300;2024-01-30T00:43:50;-2.40;58.30
2767;DHT22;1391;46.74287300;11.63683300;2024-01-30T00:46:17;-2.40;57.60
2767;DHT22;1391;46.74287300;11.63683300;2024-01-30T00:48:44;-1.80;56.10
2767;DHT22;1391;46.74287300;11.63683300;2024-01-30T00:51:12;-1.90;54.70
2767;DHT22;1391;46.74287300;11.63683300;2024-01-30T00:53:42;-2.30;51.70
2767;DHT22;1391;46.74287300;11.63683300;2024-01-30T00:56:10;-2.70;53.40
2767;DHT22;1391;46.74287300;11.63683300;2024-01-30T00:58:37;-2.40;54.90
2767;DHT22;1391;46.74287300;11.63683300;2024-01-30T01:01:04;-2.60;55.40
2767;DHT22;1391;46.74287300;11.63683300;2024-01-30T01:03:33;-2.10;57.40
2767;DHT22;1391;46.74287300;11.63683300;2024-01-30T01:06:00;-2.20;56.50
2767;DHT22;1391;46.74287300;11.63683300;2024-01-30T01:08:29;-2.40;52.10
2767;DHT22;1391;46.74287300;11.63683300;2024-01-30T01:10:57;-2.60;51.50
2767;DHT22;1391;46.74287300;11.63683300;2024-01-30T01:13:24;-2.20;55.00
2767;DHT22;1391;46.74287300;11.63683300;2024-01-30T01:15:52;-2.40;53.80
2767;DHT22;1391;46.74287300;11.63683300;2024-01-30T01:18:19;-2.10;55.80
2767;DHT22;1391;46.74287300;11.63683300;2024-01-30T01:20:46;-2.40;54.50
2767;DHT22;1391;46.74287300;11.63683300;2024-01-30T01:23:14;-2.10;58.90
2767;DHT22;1391;46.74287300;11.63683300;2024-01-30T01:25:42;-2.40;58.00
2767;DHT22;1391;46.74287300;11.63683300;2024-01-30T01:28:10;-2.70;59.50
2767;DHT22;1391;46.74287300;11.63683300;2024-01-30T01:30:37;-2.40;61.10
2767;DHT22;1391;46.74287300;11.63683300;2024-01-30T01:33:04;-2.60;59.40
2767;DHT22;1391;46.74287300;11.63683300;2024-01-30T01:35:32;-2.60;61.90
2767;DHT22;1391;46.74287300;11.63683300;2024-01-30T01:37:59;-2.20;60.00
2767;DHT22;1391;46.74287300;11.63683300;2024-01-30T01:40:27;-2.00;57.60
2767;DHT22;1391;46.74287300;11.63683300;2024-01-30T01:42:56;-2.40;56.90
2767;DHT22;1391;46.74287300;11.63683300;2024-01-30T01:45:23;-2.40;55.80
2767;DHT22;1391;46.74287300;11.63683300;2024-01-30T01:47:51;-2.70;56.80
2767;DHT22;1391;46.74287300;11.63683300;2024-01-30T01:50:20;-2.40;57.20
2767;DHT22;1391;46.74287300;11.63683300;2024-01-30T01:52:47;-2.30;56.20
2767;DHT22;1391;46.74287300;11.63683300;2024-01-30T01:55:16;-2.60;55.00
2767;DHT22;1391;46.74287300;11.63683300;2024-01-30T01:57:47;-2.70;56.10
2767;DHT22;1391;46.74287300;11.63683300;2024-01-30T02:00:16;-2.50;58.10
2767;DHT22;1391;46.74287300;11.63683300;2024-01-30T02:02:45;-2.90;56.50
2767;DHT22;1391;46.74287300;11.63683300;2024-01-30T02:05:14;-2.60;59.00
2767;DHT22;1391;46.74287300;11.63683300;2024-01-30T02:07:41;-2.90;60.90
2767;DHT22;1391;46.74287300;11.63683300;2024-01-30T02:10:09;-2.80;61.30
2767;DHT22;1391;46.74287300;11.63683300;2024-01-30T02:12:37;-2.70;63.70
2767;DHT22;1391;46.74287300;11.63683300;2024-01-30T02:15:05;-2.60;62.40
2767;DHT22;1391;46.74287300;11.63683300;2024-01-30T02:17:35;-2.60;59.90
2767;DHT22;1391;46.74287300;11.63683300;2024-01-30T02:20:02;-2.60;59.80
2767;DHT22;1391;46.74287300;11.63683300;2024-01-30T02:22:33;-2.50;59.60
2767;DHT22;1391;46.74287300;11.63683300;2024-01-30T02:25:01;-2.60;57.90
2767;DHT22;1391;46.74287300;11.63683300;2024-01-30T02:27:28;-2.70;59.30
2767;DHT22;1391;46.74287300;11.63683300;2024-01-30T02:29:55;-2.90;62.50
2767;DHT22;1391;46.74287300;11.63683300;2024-01-30T02:32:22;-2.70;63.30
2767;DHT22;1391;46.74287300;11.63683300;2024-01-30T02:34:50;-2.50;63.40
2767;DHT22;1391;46.74287300;11.63683300;2024-01-30T02:37:17;-2.40;62.20
2767;DHT22;1391;46.74287300;11.63683300;2024-01-30T02:39:45;-2.60;61.00
2767;DHT22;1391;46.74287300;11.63683300;2024-01-30T02:42:13;-2.60;61.80
2767;DHT22;1391;46.74287300;11.63683300;2024-01-30T02:44:40;-2.70;62.30
2767;DHT22;1391;46.74287300;11.63683300;2024-01-30T02:47:07;-2.40;65.10
2767;DHT22;1391;46.74287300;11.63683300;2024-01-30T02:49:34;-2.70;65.70
2767;DHT22;1391;46.74287300;11.63683300;2024-01-30T02:52:02;-2.20;65.90
2767;DHT22;1391;46.74287300;11.63683300;2024-01-30T02:54:30;-2.10;62.60
2767;DHT22;1391;46.74287300;11.63683300;2024-01-30T02:56:58;-2.70;60.50
2767;DHT22;1391;46.74287300;11.63683300;2024-01-30T02:59:26;-2.70;60.40
2767;DHT22;1391;46.74287300;11.63683300;2024-01-30T03:01:53;-2.80;57.70
2767;DHT22;1391;46.74287300;11.63683300;2024-01-30T03:04:20;-2.40;59.80
2767;DHT22;1391;46.74287300;11.63683300;2024-01-30T03:06:48;-2.70;60.40
2767;DHT22;1391;46.74287300;11.63683300;2024-01-30T03:09:16;-2.60;63.70
2767;DHT22;1391;46.74287300;11.63683300;2024-01-30T03:11:44;-2.60;63.40
2767;DHT22;1391;46.74287300;11.63683300;2024-01-30T03:14:12;-2.40;62.30
2767;DHT22;1391;46.74287300;11.63683300;2024-01-30T03:16:39;-2.90;61.80
2767;DHT22;1391;46.74287300;11.63683300;2024-01-30T03:19:07;-3.10;61.80
2767;DHT22;1391;46.74287300;11.63683300;2024-01-30T03:21:34;-3.00;65.00
2767;DHT22;1391;46.74287300;11.63683300;2024-01-30T03:24:02;-2.90;64.70
2767;DHT22;1391;46.74287300;11.63683300;2024-01-30T03:26:30;-2.60;64.40
2767;DHT22;1391;46.74287300;11.63683300;2024-01-30T03:28:57;-2.40;65.00
2767;DHT22;1391;46.74287300;11.63683300;2024-01-30T03:31:26;-2.60;63.20
2767;DHT22;1391;46.74287300;11.63683300;2024-01-30T03:33:53;-2.60;62.80
2767;DHT22;1391;46.74287300;11.63683300;2024-01-30T03:36:20;-2.60;64.10
2767;DHT22;1391;46.74287300;11.63683300;2024-01-30T03:38:47;-2.70;63.90
2767;DHT22;1391;46.74287300;11.63683300;2024-01-30T03:41:15;-2.90;63.00
2767;DHT22;1391;46.74287300;11.63683300;2024-01-30T03:43:42;-2.60;64.00
2767;DHT22;1391;46.74287300;11.63683300;2024-01-30T03:46:11;-2.70;65.70
2767;DHT22;1391;46.74287300;11.63683300;2024-01-30T03:48:40;-2.90;66.00
2767;DHT22;1391;46.74287300;11.63683300;2024-01-30T03:51:08;-3.00;66.20
2767;DHT22;1391;46.74287300;11.63683300;2024-01-30T03:53:40;-2.80;65.80
2767;DHT22;1391;46.74287300;11.63683300;2024-01-30T03:56:07;-2.70;64.40
2767;DHT22;1391;46.74287300;11.63683300;2024-01-30T03:58:34;-2.70;63.70
2767;DHT22;1391;46.74287300;11.63683300;2024-01-30T04:01:02;-2.60;63.30
2767;DHT22;1391;46.74287300;11.63683300;2024-01-30T04:03:29;-2.40;63.60
2767;DHT22;1391;46.74287300;11.63683300;2024-01-30T04:05:57;-2.70;64.20
2767;DHT22;1391;46.74287300;11.63683300;2024-01-30T04:08:25;-2.80;63.50
2767;DHT22;1391;46.74287300;11.63683300;2024-01-30T04:10:52;-2.60;65.70
2767;DHT22;1391;46.74287300;11.63683300;2024-01-30T04:13:20;-2.90;67.40
2767;DHT22;1391;46.74287300;11.63683300;2024-01-30T04:15:47;-2.80;68.00
2767;DHT22;1391;46.74287300;11.63683300;2024-01-30T04:18:14;-2.90;69.20
2767;DHT22;1391;46.74287300;11.63683300;2024-01-30T04:20:41;-2.40;68.60
2767;DHT22;1391;46.74287300;11.63683300;2024-01-30T04:23:10;-2.70;66.70
2767;DHT22;1391;46.74287300;11.63683300;2024-01-30T04:25:37;-2.50;64.90
2767;DHT22;1391;46.74287300;11.63683300;2024-01-30T04:28:05;-2.30;66.00
2767;DHT22;1391;46.74287300;11.63683300;2024-01-30T04:30:32;-3.00;64.30
2767;DHT22;1391;46.74287300;11.63683300;2024-01-30T04:33:00;-2.70;66.30
2767;DHT22;1391;46.74287300;11.63683300;2024-01-30T04:35:27;-2.40;65.90
2767;DHT22;1391;46.74287300;11.63683300;2024-01-30T04:37:55;-2.90;66.00
2767;DHT22;1391;46.74287300;11.63683300;2024-01-30T04:40:23;-3.10;66.70
2767;DHT22;1391;46.74287300;11.63683300;2024-01-30T04:42:51;-3.00;69.00
2767;DHT22;1391;46.74287300;11.63683300;2024-01-30T04:45:18;-2.90;70.80
2767;DHT22;1391;46.74287300;11.63683300;2024-01-30T04:47:45;-2.90;71.60
2767;DHT22;1391;46.74287300;11.63683300;2024-01-30T04:50:13;-2.70;70.40
2767;DHT22;1391;46.74287300;11.63683300;2024-01-30T04:52:42;-2.90;68.70
2767;DHT22;1391;46.74287300;11.63683300;2024-01-30T04:55:09;-2.80;67.70
2767;DHT22;1391;46.74287300;11.63683300;2024-01-30T04:57:38;-2.90;70.10
2767;DHT22;1391;46.74287300;11.63683300;2024-01-30T05:00:07;-2.90;69.90
2767;DHT22;1391;46.74287300;11.63683300;2024-01-30T05:02:38;-2.80;69.30
2767;DHT22;1391;46.74287300;11.63683300;2024-01-30T05:05:05;-2.40;68.80
2767;DHT22;1391;46.74287300;11.63683300;2024-01-30T05:07:38;-2.80;68.00
2767;DHT22;1391;46.74287300;11.63683300;2024-01-30T05:10:11;-2.90;66.90
2767;DHT22;1391;46.74287300;11.63683300;2024-01-30T05:12:40;-2.70;67.60
2767;DHT22;1391;46.74287300;11.63683300;2024-01-30T05:15:08;-2.80;68.50
2767;DHT22;1391;46.74287300;11.63683300;2024-01-30T05:17:36;-2.40;69.10
2767;DHT22;1391;46.74287300;11.63683300;2024-01-30T05:20:04;-3.00;67.50
2767;DHT22;1391;46.74287300;11.63683300;2024-01-30T05:22:33;-2.90;68.70
2767;DHT22;1391;46.74287300;11.63683300;2024-01-30T05:25:00;-2.90;70.00
2767;DHT22;1391;46.74287300;11.63683300;2024-01-30T05:27:27;-2.90;68.70
2767;DHT22;1391;46.74287300;11.63683300;2024-01-30T05:29:57;-2.70;67.00
2767;DHT22;1391;46.74287300;11.63683300;2024-01-30T05:32:24;-2.70;65.90
2767;DHT22;1391;46.74287300;11.63683300;2024-01-30T05:34:53;-2.70;65.00
2767;DHT22;1391;46.74287300;11.63683300;2024-01-30T05:37:21;-2.30;65.00
2767;DHT22;1391;46.74287300;11.63683300;2024-01-30T05:39:50;-2.90;62.50
2767;DHT22;1391;46.74287300;11.63683300;2024-01-30T05:42:18;-2.90;66.40
2767;DHT22;1391;46.74287300;11.63683300;2024-01-30T05:44:46;-3.00;68.40
2767;DHT22;1391;46.74287300;11.63683300;2024-01-30T05:47:17;-3.00;69.40
2767;DHT22;1391;46.74287300;11.63683300;2024-01-30T05:49:44;-2.60;67.90
2767;DHT22;1391;46.74287300;11.63683300;2024-01-30T05:52:12;-2.90;66.00
2767;DHT22;1391;46.74287300;11.63683300;2024-01-30T05:54:40;-2.90;66.00
2767;DHT22;1391;46.74287300;11.63683300;2024-01-30T05:57:08;-2.90;66.40
2767;DHT22;1391;46.74287300;11.63683300;2024-01-30T05:59:35;-2.60;68.00
2767;DHT22;1391;46.74287300;11.63683300;2024-01-30T06:02:03;-2.80;70.60
2767;DHT22;1391;46.74287300;11.63683300;2024-01-30T06:04:32;-2.90;70.80
2767;DHT22;1391;46.74287300;11.63683300;2024-01-30T06:06:59;-2.80;70.20
2767;DHT22;1391;46.74287300;11.63683300;2024-01-30T06:09:27;-2.60;68.50
2767;DHT22;1391;46.74287300;11.63683300;2024-01-30T06:11:55;-2.40;66.40
2767;DHT22;1391;46.74287300;11.63683300;2024-01-30T06:14:22;-2.60;65.00
2767;DHT22;1391;46.74287300;11.63683300;2024-01-30T06:16:50;-2.70;63.30
2767;DHT22;1391;46.74287300;11.63683300;2024-01-30T06:19:17;-2.50;62.80
2767;DHT22;1391;46.74287300;11.63683300;2024-01-30T06:21:46;-2.80;63.00
2767;DHT22;1391;46.74287300;11.63683300;2024-01-30T06:24:13;-2.70;65.10
2767;DHT22;1391;46.74287300;11.63683300;2024-01-30T06:26:41;-2.90;67.00
2767;DHT22;1391;46.74287300;11.63683300;2024-01-30T06:29:08;-2.80;69.10
2767;DHT22;1391;46.74287300;11.63683300;2024-01-30T06:31:40;-2.30;69.70
2767;DHT22;1391;46.74287300;11.63683300;2024-01-30T06:34:09;-2.60;68.20
2767;DHT22;1391;46.74287300;11.63683300;2024-01-30T06:36:38;-2.70;66.00
2767;DHT22;1391;46.74287300;11.63683300;2024-01-30T06:39:07;-2.70;64.20
2767;DHT22;1391;46.74287300;11.63683300;2024-01-30T06:41:34;-2.40;64.50
2767;DHT22;1391;46.74287300;11.63683300;2024-01-30T06:44:02;-2.70;64.70
2767;DHT22;1391;46.74287300;11.63683300;2024-01-30T06:46:32;-2.30;65.30
2767;DHT22;1391;46.74287300;11.63683300;2024-01-30T06:48:59;-2.30;65.50
2767;DHT22;1391;46.74287300;11.63683300;2024-01-30T06:51:27;-2.50;65.40
2767;DHT22;1391;46.74287300;11.63683300;2024-01-30T06:53:54;-2.70;65.10
2767;DHT22;1391;46.74287300;11.63683300;2024-01-30T06:56:23;-2.80;64.20
2767;DHT22;1391;46.74287300;11.63683300;2024-01-30T06:58:51;-2.50;64.60
2767;DHT22;1391;46.74287300;11.63683300;2024-01-30T07:01:19;-2.70;64.50
2767;DHT22;1391;46.74287300;11.63683300;2024-01-30T07:03:46;-2.70;64.00
2767;DHT22;1391;46.74287300;11.63683300;2024-01-30T07:06:14;-2.70;63.90
2767;DHT22;1391;46.74287300;11.63683300;2024-01-30T07:08:41;-2.60;64.80
2767;DHT22;1391;46.74287300;11.63683300;2024-01-30T07:11:08;-2.60;64.20
2767;DHT22;1391;46.74287300;11.63683300;2024-01-30T07:13:39;-2.70;63.00
2767;DHT22;1391;46.74287300;11.63683300;2024-01-30T07:16:06;-2.60;62.80
2767;DHT22;1391;46.74287300;11.63683300;2024-01-30T07:18:34;-2.70;63.40
2767;DHT22;1391;46.74287300;11.63683300;2024-01-30T07:21:01;-2.40;63.00
2767;DHT22;1391;46.74287300;11.63683300;2024-01-30T07:23:30;-2.60;62.00
2767;DHT22;1391;46.74287300;11.63683300;2024-01-30T07:25:57;-2.60;62.40
2767;DHT22;1391;46.74287300;11.63683300;2024-01-30T07:28:24;-2.70;62.80
2767;DHT22;1391;46.74287300;11.63683300;2024-01-30T07:30:53;-2.90;64.80
2767;DHT22;1391;46.74287300;11.63683300;2024-01-30T07:33:20;-2.70;66.40
2767;DHT22;1391;46.74287300;11.63683300;2024-01-30T07:35:48;-2.40;68.40
2767;DHT22;1391;46.74287300;11.63683300;2024-01-30T07:38:15;-2.70;67.30
2767;DHT22;1391;46.74287300;11.63683300;2024-01-30T07:40:42;-2.30;66.90
2767;DHT22;1391;46.74287300;11.63683300;2024-01-30T07:43:09;-2.40;65.90
2767;DHT22;1391;46.74287300;11.63683300;2024-01-30T07:45:39;-2.20;65.40
2767;DHT22;1391;46.74287300;11.63683300;2024-01-30T07:48:08;-2.20;64.90
2767;DHT22;1391;46.74287300;11.63683300;2024-01-30T07:50:35;-2.40;65.30
2767;DHT22;1391;46.74287300;11.63683300;2024-01-30T07:53:02;-2.20;65.70
2767;DHT22;1391;46.74287300;11.63683300;2024-01-30T07:55:29;-2.70;65.40
2767;DHT22;1391;46.74287300;11.63683300;2024-01-30T07:57:58;-2.50;68.10
2767;DHT22;1391;46.74287300;11.63683300;2024-01-30T08:00:26;-2.70;68.70
2767;DHT22;1391;46.74287300;11.63683300;2024-01-30T08:02:54;-2.40;69.30
2767;DHT22;1391;46.74287300;11.63683300;2024-01-30T08:05:23;-1.50;71.40
2767;DHT22;1391;46.74287300;11.63683300;2024-01-30T08:07:50;-1.00;66.80
2767;DHT22;1391;46.74287300;11.63683300;2024-01-30T08:10:18;-0.90;62.70
2767;DHT22;1391;46.74287300;11.63683300;2024-01-30T08:12:45;-0.30;54.40
2767;DHT22;1391;46.74287300;11.63683300;2024-01-30T08:15:12;-0.10;46.50
2767;DHT22;1391;46.74287300;11.63683300;2024-01-30T08:17:40;0.70;40.10
2767;DHT22;1391;46.74287300;11.63683300;2024-01-30T08:20:08;0.70;35.40
2767;DHT22;1391;46.74287300;11.63683300;2024-01-30T08:22:39;0.60;33.90
2767;DHT22;1391;46.74287300;11.63683300;2024-01-30T08:25:07;1.10;29.80
2767;DHT22;1391;46.74287300;11.63683300;2024-01-30T08:27:35;1.60;28.70
2767;DHT22;1391;46.74287300;11.63683300;2024-01-30T08:30:05;1.70;24.10
2767;DHT22;1391;46.74287300;11.63683300;2024-01-30T08:32:33;2.00;20.40
2767;DHT22;1391;46.74287300;11.63683300;2024-01-30T08:35:00;1.80;20.10
2767;DHT22;1391;46.74287300;11.63683300;2024-01-30T08:37:29;2.10;18.70
2767;DHT22;1391;46.74287300;11.63683300;2024-01-30T08:39:57;2.40;17.20
2767;DHT22;1391;46.74287300;11.63683300;2024-01-30T08:42:25;2.10;16.80
2767;DHT22;1391;46.74287300;11.63683300;2024-01-30T08:44:52;1.90;18.40
2767;DHT22;1391;46.74287300;11.63683300;2024-01-30T08:47:21;2.20;18.20
2767;DHT22;1391;46.74287300;11.63683300;2024-01-30T08:49:48;2.30;16.90
2767;DHT22;1391;46.74287300;11.63683300;2024-01-30T08:52:15;2.60;15.50
2767;DHT22;1391;46.74287300;11.63683300;2024-01-30T08:54:43;2.60;15.40
2767;DHT22;1391;46.74287300;11.63683300;2024-01-30T08:57:11;2.50;15.40
2767;DHT22;1391;46.74287300;11.63683300;2024-01-30T08:59:38;2.30;16.50
2767;DHT22;1391;46.74287300;11.63683300;2024-01-30T09:02:06;2.50;16.70
2767;DHT22;1391;46.74287300;11.63683300;2024-01-30T09:04:35;2.60;17.20
2767;DHT22;1391;46.74287300;11.63683300;2024-01-30T09:07:02;2.70;15.10
2767;DHT22;1391;46.74287300;11.63683300;2024-01-30T09:09:31;2.90;16.20
2767;DHT22;1391;46.74287300;11.63683300;2024-01-30T09:11:58;2.90;14.60
2767;DHT22;1391;46.74287300;11.63683300;2024-01-30T09:14:31;3.60;13.70
2767;DHT22;1391;46.74287300;11.63683300;2024-01-30T09:16:59;3.50;11.00
2767;DHT22;1391;46.74287300;11.63683300;2024-01-30T09:19:26;4.00;12.10
2767;DHT22;1391;46.74287300;11.63683300;2024-01-30T09:21:53;4.10;8.10
2767;DHT22;1391;46.74287300;11.63683300;2024-01-30T09:24:20;4.20;7.20
2767;DHT22;1391;46.74287300;11.63683300;2024-01-30T09:26:48;4.30;7.00
2767;DHT22;1391;46.74287300;11.63683300;2024-01-30T09:29:15;4.50;6.90
2767;DHT22;1391;46.74287300;11.63683300;2024-01-30T09:31:44;5.20;5.30
2767;DHT22;1391;46.74287300;11.63683300;2024-01-30T09:34:12;5.10;5.20
2767;DHT22;1391;46.74287300;11.63683300;2024-01-30T09:36:39;5.10;3.20
2767;DHT22;1391;46.74287300;11.63683300;2024-01-30T09:39:06;4.90;3.10
2767;DHT22;1391;46.74287300;11.63683300;2024-01-30T09:41:40;5.20;3.80
2767;DHT22;1391;46.74287300;11.63683300;2024-01-30T09:44:13;5.40;3.10
2767;DHT22;1391;46.74287300;11.63683300;2024-01-30T09:46:45;5.50;1.00
2767;DHT22;1391;46.74287300;11.63683300;2024-01-30T09:49:14;6.10;1.00
2767;DHT22;1391;46.74287300;11.63683300;2024-01-30T09:51:40;5.40;1.00
2767;DHT22;1391;46.74287300;11.63683300;2024-01-30T09:54:08;5.30;1.80
2767;DHT22;1391;46.74287300;11.63683300;2024-01-30T09:56:36;5.40;1.00
2767;DHT22;1391;46.74287300;11.63683300;2024-01-30T09:59:04;5.60;1.00
2767;DHT22;1391;46.74287300;11.63683300;2024-01-30T10:01:31;5.90;1.00
2767;DHT22;1391;46.74287300;11.63683300;2024-01-30T10:04:02;6.00;1.00
2767;DHT22;1391;46.74287300;11.63683300;2024-01-30T10:06:30;6.10;1.00
2767;DHT22;1391;46.74287300;11.63683300;2024-01-30T10:08:57;6.00;1.00
2767;DHT22;1391;46.74287300;11.63683300;2024-01-30T10:11:25;6.10;1.00
2767;DHT22;1391;46.74287300;11.63683300;2024-01-30T10:13:52;5.80;1.00
2767;DHT22;1391;46.74287300;11.63683300;2024-01-30T10:16:19;6.60;1.00
2767;DHT22;1391;46.74287300;11.63683300;2024-01-30T10:18:46;6.40;1.00
2767;DHT22;1391;46.74287300;11.63683300;2024-01-30T10:21:15;6.70;1.00
2767;DHT22;1391;46.74287300;11.63683300;2024-01-30T10:23:43;6.90;1.00
2767;DHT22;1391;46.74287300;11.63683300;2024-01-30T10:26:11;6.60;1.00
2767;DHT22;1391;46.74287300;11.63683300;2024-01-30T10:28:38;7.00;1.00
2767;DHT22;1391;46.74287300;11.63683300;2024-01-30T10:31:05;6.40;1.00
2767;DHT22;1391;46.74287300;11.63683300;2024-01-30T10:33:33;6.60;1.00
2767;DHT22;1391;46.74287300;11.63683300;2024-01-30T10:36:01;7.10;1.00
2767;DHT22;1391;46.74287300;11.63683300;2024-01-30T10:38:32;7.10;1.00
2767;DHT22;1391;46.74287300;11.63683300;2024-01-30T10:41:00;7.40;1.00
2767;DHT22;1391;46.74287300;11.63683300;2024-01-30T10:43:31;7.30;1.00
2767;DHT22;1391;46.74287300;11.63683300;2024-01-30T10:46:10;7.30;1.00
2767;DHT22;1391;46.74287300;11.63683300;2024-01-30T10:48:43;7.40;1.00
2767;DHT22;1391;46.74287300;11.63683300;2024-01-30T10:51:11;7.70;1.00
2767;DHT22;1391;46.74287300;11.63683300;2024-01-30T10:53:41;7.80;1.00
2767;DHT22;1391;46.74287300;11.63683300;2024-01-30T10:56:11;7.70;1.00
2767;DHT22;1391;46.74287300;11.63683300;2024-01-30T10:58:38;7.70;1.00
2767;DHT22;1391;46.74287300;11.63683300;2024-01-30T11:01:06;7.50;1.00
2767;DHT22;1391;46.74287300;11.63683300;2024-01-30T11:03:34;8.20;1.00
2767;DHT22;1391;46.74287300;11.63683300;2024-01-30T11:06:02;8.00;1.00
2767;DHT22;1391;46.74287300;11.63683300;2024-01-30T11:08:32;8.10;1.00
2767;DHT22;1391;46.74287300;11.63683300;2024-01-30T11:11:01;7.60;1.00
2767;DHT22;1391;46.74287300;11.63683300;2024-01-30T11:13:29;8.40;1.00
2767;DHT22;1391;46.74287300;11.63683300;2024-01-30T11:16:00;8.20;1.00
2767;DHT22;1391;46.74287300;11.63683300;2024-01-30T11:18:29;7.70;1.00
2767;DHT22;1391;46.74287300;11.63683300;2024-01-30T11:20:58;8.20;1.00
2767;DHT22;1391;46.74287300;11.63683300;2024-01-30T11:23:27;8.00;1.00
2767;DHT22;1391;46.74287300;11.63683300;2024-01-30T11:25:56;8.10;1.00
2767;DHT22;1391;46.74287300;11.63683300;2024-01-30T11:28:32;8.30;1.00
2767;DHT22;1391;46.74287300;11.63683300;2024-01-30T11:31:04;8.60;1.00
2767;DHT22;1391;46.74287300;11.63683300;2024-01-30T11:33:33;8.80;1.00
2767;DHT22;1391;46.74287300;11.63683300;2024-01-30T11:36:01;8.80;1.00
2767;DHT22;1391;46.74287300;11.63683300;2024-01-30T11:38:29;8.90;1.00
2767;DHT22;1391;46.74287300;11.63683300;2024-01-30T11:40:56;9.40;1.00
2767;DHT22;1391;46.74287300;11.63683300;2024-01-30T11:43:25;9.40;1.00
2767;DHT22;1391;46.74287300;11.63683300;2024-01-30T11:45:52;9.10;1.00
2767;DHT22;1391;46.74287300;11.63683300;2024-01-30T11:48:19;9.30;1.00
2767;DHT22;1391;46.74287300;11.63683300;2024-01-30T11:50:47;8.60;1.00
2767;DHT22;1391;46.74287300;11.63683300;2024-01-30T11:53:14;8.80;1.00
2767;DHT22;1391;46.74287300;11.63683300;2024-01-30T11:55:42;9.20;1.00
2767;DHT22;1391;46.74287300;11.63683300;2024-01-30T11:58:16;8.60;1.00
2767;DHT22;1391;46.74287300;11.63683300;2024-01-30T12:00:53;8.90;1.00
2767;DHT22;1391;46.74287300;11.63683300;2024-01-30T12:03:21;9.40;1.00
2767;DHT22;1391;46.74287300;11.63683300;2024-01-30T12:05:55;9.40;1.00
2767;DHT22;1391;46.74287300;11.63683300;2024-01-30T12:08:23;10.00;1.00
2767;DHT22;1391;46.74287300;11.63683300;2024-01-30T12:10:56;9.70;1.00
2767;DHT22;1391;46.74287300;11.63683300;2024-01-30T12:13:25;9.90;1.00
2767;DHT22;1391;46.74287300;11.63683300;2024-01-30T12:15:54;9.90;1.00
2767;DHT22;1391;46.74287300;11.63683300;2024-01-30T12:18:21;9.90;1.00
2767;DHT22;1391;46.74287300;11.63683300;2024-01-30T12:20:57;9.90;1.00
2767;DHT22;1391;46.74287300;11.63683300;2024-01-30T12:23:24;9.90;1.00
2767;DHT22;1391;46.74287300;11.63683300;2024-01-30T12:25:52;9.90;1.00
2767;DHT22;1391;46.74287300;11.63683300;2024-01-30T12:28:21;9.90;1.00
2767;DHT22;1391;46.74287300;11.63683300;2024-01-30T12:30:48;9.90;1.00
2767;DHT22;1391;46.74287300;11.63683300;2024-01-30T12:33:20;9.50;1.00
2767;DHT22;1391;46.74287300;11.63683300;2024-01-30T12:35:47;9.80;1.00
2767;DHT22;1391;46.74287300;11.63683300;2024-01-30T12:38:15;9.70;1.00
2767;DHT22;1391;46.74287300;11.63683300;2024-01-30T12:40:43;9.70;1.00
2767;DHT22;1391;46.74287300;11.63683300;2024-01-30T12:43:10;9.00;1.00
2767;DHT22;1391;46.74287300;11.63683300;2024-01-30T12:45:38;8.70;1.00
2767;DHT22;1391;46.74287300;11.63683300;2024-01-30T12:48:06;8.60;1.00
2767;DHT22;1391;46.74287300;11.63683300;2024-01-30T12:50:34;8.10;1.00
2767;DHT22;1391;46.74287300;11.63683300;2024-01-30T12:53:02;8.20;1.00
2767;DHT22;1391;46.74287300;11.63683300;2024-01-30T12:55:30;8.10;1.00
2767;DHT22;1391;46.74287300;11.63683300;2024-01-30T12:57:57;8.30;1.00
2767;DHT22;1391;46.74287300;11.63683300;2024-01-30T13:00:24;7.60;1.00
2767;DHT22;1391;46.74287300;11.63683300;2024-01-30T13:02:51;7.60;1.00
2767;DHT22;1391;46.74287300;11.63683300;2024-01-30T13:05:19;7.70;1.00
2767;DHT22;1391;46.74287300;11.63683300;2024-01-30T13:07:47;7.80;1.00
2767;DHT22;1391;46.74287300;11.63683300;2024-01-30T13:10:15;7.60;1.00
2767;DHT22;1391;46.74287300;11.63683300;2024-01-30T13:12:42;7.60;1.00
2767;DHT22;1391;46.74287300;11.63683300;2024-01-30T13:15:09;7.70;1.00
2767;DHT22;1391;46.74287300;11.63683300;2024-01-30T13:17:37;7.90;1.00
2767;DHT22;1391;46.74287300;11.63683300;2024-01-30T13:20:05;7.20;1.00
2767;DHT22;1391;46.74287300;11.63683300;2024-01-30T13:22:34;7.30;1.00
2767;DHT22;1391;46.74287300;11.63683300;2024-01-30T13:25:03;7.30;1.00
2767;DHT22;1391;46.74287300;11.63683300;2024-01-30T13:27:30;6.70;1.00
2767;DHT22;1391;46.74287300;11.63683300;2024-01-30T13:29:58;6.70;1.00
2767;DHT22;1391;46.74287300;11.63683300;2024-01-30T13:32:25;6.80;1.00
2767;DHT22;1391;46.74287300;11.63683300;2024-01-30T13:34:52;6.90;1.00
2767;DHT22;1391;46.74287300;11.63683300;2024-01-30T13:37:20;6.90;1.00
2767;DHT22;1391;46.74287300;11.63683300;2024-01-30T13:39:47;6.80;1.00
2767;DHT22;1391;46.74287300;11.63683300;2024-01-30T13:42:15;6.90;1.00
2767;DHT22;1391;46.74287300;11.63683300;2024-01-30T13:44:43;6.60;1.00
2767;DHT22;1391;46.74287300;11.63683300;2024-01-30T13:47:10;6.40;1.00